sensor_id;sensor_type;location;lat;lon;timestamp;P1;durP1;ratioP1;P2;durP2;ratioP2
39050;SDS011;24805;55.852;37.644;2023-06-14T00:03:01;7.70;;;4.63;;
39050;SDS011;24805;55.852;37.644;2023-06-14T00:08:06;10.70;;;4.72;;
39050;SDS011;24805;55.852;37.644;2023-06-14T00:13:10;12.57;;;4.75;;
39050;SDS011;24805;55.852;37.644;2023-06-14T00:18:12;8.95;;;4.85;;
39050;SDS011;24805;55.852;37.644;2023-06-14T00:28:16;12.25;;;4.90;;
39050;SDS011;24805;55.852;37.644;2023-06-14T00:33:18;11.57;;;4.97;;
39050;SDS011;24805;55.852;37.644;2023-06-14T00:38:21;10.23;;;4.75;;
39050;SDS011;24805;55.852;37.644;2023-06-14T00:48:25;12.20;;;4.70;;
39050;SDS011;24805;55.852;37.644;2023-06-14T00:53:28;8.45;;;4.38;;
39050;SDS011;24805;55.852;37.644;2023-06-14T00:58:31;12.07;;;4.78;;
39050;SDS011;24805;55.852;37.644;2023-06-14T01:03:34;9.30;;;4.57;;
39050;SDS011;24805;55.852;37.644;2023-06-14T01:14:01;13.88;;;4.97;;
39050;SDS011;24805;55.852;37.644;2023-06-14T01:19:05;8.57;;;4.85;;
39050;SDS011;24805;55.852;37.644;2023-06-14T01:24:08;10.15;;;5.57;;
39050;SDS011;24805;55.852;37.644;2023-06-14T01:29:13;11.55;;;4.72;;
39050;SDS011;24805;55.852;37.644;2023-06-14T01:34:19;14.27;;;4.82;;
39050;SDS011;24805;55.852;37.644;2023-06-14T01:39:25;8.52;;;5.07;;
39050;SDS011;24805;55.852;37.644;2023-06-14T01:44:30;15.75;;;5.03;;
39050;SDS011;24805;55.852;37.644;2023-06-14T01:49:35;7.90;;;4.88;;
39050;SDS011;24805;55.852;37.644;2023-06-14T01:54:37;12.90;;;5.45;;
39050;SDS011;24805;55.852;37.644;2023-06-14T01:59:43;8.13;;;4.22;;
39050;SDS011;24805;55.852;37.644;2023-06-14T02:04:49;10.55;;;4.95;;
39050;SDS011;24805;55.852;37.644;2023-06-14T02:09:52;11.70;;;5.55;;
39050;SDS011;24805;55.852;37.644;2023-06-14T02:14:57;12.23;;;5.50;;
39050;SDS011;24805;55.852;37.644;2023-06-14T02:19:59;10.90;;;5.50;;
39050;SDS011;24805;55.852;37.644;2023-06-14T02:25:02;9.93;;;5.53;;
39050;SDS011;24805;55.852;37.644;2023-06-14T02:30:05;11.07;;;5.55;;
39050;SDS011;24805;55.852;37.644;2023-06-14T02:35:07;12.10;;;5.22;;
39050;SDS011;24805;55.852;37.644;2023-06-14T02:40:11;9.18;;;5.10;;
39050;SDS011;24805;55.852;37.644;2023-06-14T02:45:14;10.60;;;4.70;;
39050;SDS011;24805;55.852;37.644;2023-06-14T02:50:17;11.88;;;5.30;;
39050;SDS011;24805;55.852;37.644;2023-06-14T02:55:19;15.27;;;5.20;;
39050;SDS011;24805;55.852;37.644;2023-06-14T03:00:22;7.70;;;5.15;;
39050;SDS011;24805;55.852;37.644;2023-06-14T03:05:25;12.30;;;5.85;;
39050;SDS011;24805;55.852;37.644;2023-06-14T03:10:30;10.35;;;5.10;;
39050;SDS011;24805;55.852;37.644;2023-06-14T03:15:33;15.07;;;6.07;;
39050;SDS011;24805;55.852;37.644;2023-06-14T03:20:36;9.93;;;5.43;;
39050;SDS011;24805;55.852;37.644;2023-06-14T03:25:40;9.68;;;5.30;;
39050;SDS011;24805;55.852;37.644;2023-06-14T03:30:46;8.25;;;5.00;;
39050;SDS011;24805;55.852;37.644;2023-06-14T03:35:49;10.75;;;5.97;;
39050;SDS011;24805;55.852;37.644;2023-06-14T03:40:52;14.75;;;5.47;;
39050;SDS011;24805;55.852;37.644;2023-06-14T03:45:54;8.13;;;5.45;;
39050;SDS011;24805;55.852;37.644;2023-06-14T03:50:58;11.15;;;5.78;;
39050;SDS011;24805;55.852;37.644;2023-06-14T03:56:03;9.38;;;6.00;;
39050;SDS011;24805;55.852;37.644;2023-06-14T04:01:13;15.60;;;5.90;;
39050;SDS011;24805;55.852;37.644;2023-06-14T04:06:16;9.55;;;5.85;;
39050;SDS011;24805;55.852;37.644;2023-06-14T04:11:22;12.55;;;5.45;;
39050;SDS011;24805;55.852;37.644;2023-06-14T04:16:24;10.00;;;5.55;;
39050;SDS011;24805;55.852;37.644;2023-06-14T04:21:27;10.88;;;5.03;;
39050;SDS011;24805;55.852;37.644;2023-06-14T04:26:33;8.43;;;4.32;;
39050;SDS011;24805;55.852;37.644;2023-06-14T04:31:36;10.98;;;4.60;;
39050;SDS011;24805;55.852;37.644;2023-06-14T04:36:44;7.40;;;4.22;;
39050;SDS011;24805;55.852;37.644;2023-06-14T04:41:59;10.07;;;4.80;;
39050;SDS011;24805;55.852;37.644;2023-06-14T04:47:03;10.35;;;4.68;;
39050;SDS011;24805;55.852;37.644;2023-06-14T04:52:06;8.02;;;4.40;;
39050;SDS011;24805;55.852;37.644;2023-06-14T04:57:12;13.50;;;4.47;;
39050;SDS011;24805;55.852;37.644;2023-06-14T05:02:22;11.32;;;4.38;;
39050;SDS011;24805;55.852;37.644;2023-06-14T05:07:25;9.95;;;4.45;;
39050;SDS011;24805;55.852;37.644;2023-06-14T05:12:28;6.88;;;3.95;;
39050;SDS011;24805;55.852;37.644;2023-06-14T05:17:31;11.13;;;4.00;;
39050;SDS011;24805;55.852;37.644;2023-06-14T05:22:33;8.30;;;3.92;;
39050;SDS011;24805;55.852;37.644;2023-06-14T05:27:35;7.53;;;4.28;;
39050;SDS011;24805;55.852;37.644;2023-06-14T05:32:39;11.15;;;3.97;;
39050;SDS011;24805;55.852;37.644;2023-06-14T05:37:41;9.38;;;3.33;;
39050;SDS011;24805;55.852;37.644;2023-06-14T05:42:43;5.70;;;3.10;;
39050;SDS011;24805;55.852;37.644;2023-06-14T05:47:46;7.18;;;2.78;;
39050;SDS011;24805;55.852;37.644;2023-06-14T05:52:48;5.93;;;2.70;;
39050;SDS011;24805;55.852;37.644;2023-06-14T05:57:50;5.43;;;2.40;;
39050;SDS011;24805;55.852;37.644;2023-06-14T06:02:53;6.70;;;2.28;;
39050;SDS011;24805;55.852;37.644;2023-06-14T06:07:59;7.72;;;1.92;;
39050;SDS011;24805;55.852;37.644;2023-06-14T06:13:01;7.18;;;1.65;;
39050;SDS011;24805;55.852;37.644;2023-06-14T06:18:04;3.55;;;1.70;;
39050;SDS011;24805;55.852;37.644;2023-06-14T06:23:06;4.03;;;1.83;;
39050;SDS011;24805;55.852;37.644;2023-06-14T06:28:09;7.28;;;1.60;;
39050;SDS011;24805;55.852;37.644;2023-06-14T06:33:11;6.65;;;1.50;;
39050;SDS011;24805;55.852;37.644;2023-06-14T06:38:14;3.50;;;1.13;;
39050;SDS011;24805;55.852;37.644;2023-06-14T06:43:16;3.25;;;1.13;;
39050;SDS011;24805;55.852;37.644;2023-06-14T06:48:22;5.15;;;1.50;;
39050;SDS011;24805;55.852;37.644;2023-06-14T06:53:24;5.25;;;1.27;;
39050;SDS011;24805;55.852;37.644;2023-06-14T06:58:42;2.80;;;1.25;;
39050;SDS011;24805;55.852;37.644;2023-06-14T07:03:44;2.95;;;1.30;;
39050;SDS011;24805;55.852;37.644;2023-06-14T07:08:46;8.52;;;4.75;;
39050;SDS011;24805;55.852;37.644;2023-06-14T07:13:52;2.30;;;1.33;;
39050;SDS011;24805;55.852;37.644;2023-06-14T07:18:54;4.05;;;1.27;;
39050;SDS011;24805;55.852;37.644;2023-06-14T07:23:56;2.10;;;1.30;;
39050;SDS011;24805;55.852;37.644;2023-06-14T07:28:59;3.97;;;1.40;;
39050;SDS011;24805;55.852;37.644;2023-06-14T07:34:01;4.95;;;1.25;;
39050;SDS011;24805;55.852;37.644;2023-06-14T07:39:04;3.17;;;1.23;;
39050;SDS011;24805;55.852;37.644;2023-06-14T07:44:08;2.33;;;1.08;;
39050;SDS011;24805;55.852;37.644;2023-06-14T07:49:10;5.85;;;2.05;;
39050;SDS011;24805;55.852;37.644;2023-06-14T07:54:12;3.45;;;1.30;;
39050;SDS011;24805;55.852;37.644;2023-06-14T07:59:15;2.83;;;1.20;;
39050;SDS011;24805;55.852;37.644;2023-06-14T08:04:18;3.38;;;1.60;;
39050;SDS011;24805;55.852;37.644;2023-06-14T08:09:20;3.67;;;1.55;;
39050;SDS011;24805;55.852;37.644;2023-06-14T08:14:22;2.40;;;1.30;;
39050;SDS011;24805;55.852;37.644;2023-06-14T08:19:25;3.55;;;1.25;;
39050;SDS011;24805;55.852;37.644;2023-06-14T08:24:27;3.03;;;1.30;;
39050;SDS011;24805;55.852;37.644;2023-06-14T08:29:29;3.80;;;1.45;;
39050;SDS011;24805;55.852;37.644;2023-06-14T08:34:32;3.65;;;1.23;;
39050;SDS011;24805;55.852;37.644;2023-06-14T08:39:34;3.28;;;1.23;;
39050;SDS011;24805;55.852;37.644;2023-06-14T08:44:36;3.25;;;1.42;;
39050;SDS011;24805;55.852;37.644;2023-06-14T08:49:39;1.52;;;0.80;;
39050;SDS011;24805;55.852;37.644;2023-06-14T08:54:46;6.43;;;3.00;;
39050;SDS011;24805;55.852;37.644;2023-06-14T08:59:50;4.25;;;2.72;;
39050;SDS011;24805;55.852;37.644;2023-06-14T09:04:55;1.70;;;1.30;;
39050;SDS011;24805;55.852;37.644;2023-06-14T09:10:05;2.50;;;1.20;;
39050;SDS011;24805;55.852;37.644;2023-06-14T09:15:10;6.53;;;2.17;;
39050;SDS011;24805;55.852;37.644;2023-06-14T09:20:12;4.63;;;1.55;;
39050;SDS011;24805;55.852;37.644;2023-06-14T09:25:21;2.78;;;1.30;;
39050;SDS011;24805;55.852;37.644;2023-06-14T09:30:39;3.25;;;1.30;;
39050;SDS011;24805;55.852;37.644;2023-06-14T09:35:42;4.38;;;1.40;;
39050;SDS011;24805;55.852;37.644;2023-06-14T09:40:47;4.32;;;1.40;;
39050;SDS011;24805;55.852;37.644;2023-06-14T09:45:51;4.57;;;1.33;;
39050;SDS011;24805;55.852;37.644;2023-06-14T09:50:53;4.68;;;1.00;;
39050;SDS011;24805;55.852;37.644;2023-06-14T09:55:59;1.55;;;1.35;;
39050;SDS011;24805;55.852;37.644;2023-06-14T10:01:02;3.83;;;1.10;;
39050;SDS011;24805;55.852;37.644;2023-06-14T10:06:07;2.17;;;0.95;;
39050;SDS011;24805;55.852;37.644;2023-06-14T10:11:11;2.75;;;1.60;;
39050;SDS011;24805;55.852;37.644;2023-06-14T10:16:17;3.55;;;1.30;;
39050;SDS011;24805;55.852;37.644;2023-06-14T10:26:54;2.30;;;1.02;;
39050;SDS011;24805;55.852;37.644;2023-06-14T10:32:00;2.75;;;1.40;;
39050;SDS011;24805;55.852;37.644;2023-06-14T10:37:06;4.32;;;1.50;;
39050;SDS011;24805;55.852;37.644;2023-06-14T10:42:13;3.15;;;2.08;;
39050;SDS011;24805;55.852;37.644;2023-06-14T10:52:37;3.17;;;1.30;;
39050;SDS011;24805;55.852;37.644;2023-06-14T10:57:44;2.58;;;1.13;;
39050;SDS011;24805;55.852;37.644;2023-06-14T11:13:32;6.07;;;1.50;;
39050;SDS011;24805;55.852;37.644;2023-06-14T11:18:34;3.25;;;1.25;;
39050;SDS011;24805;55.852;37.644;2023-06-14T11:23:38;3.67;;;1.30;;
39050;SDS011;24805;55.852;37.644;2023-06-14T11:28:40;3.90;;;1.17;;
39050;SDS011;24805;55.852;37.644;2023-06-14T11:33:43;3.22;;;1.17;;
39050;SDS011;24805;55.852;37.644;2023-06-14T11:38:57;4.53;;;1.30;;
39050;SDS011;24805;55.852;37.644;2023-06-14T11:44:05;3.55;;;1.20;;
39050;SDS011;24805;55.852;37.644;2023-06-14T11:49:09;3.03;;;1.40;;
39050;SDS011;24805;55.852;37.644;2023-06-14T11:54:11;3.83;;;1.50;;
39050;SDS011;24805;55.852;37.644;2023-06-14T11:59:13;3.90;;;1.45;;
39050;SDS011;24805;55.852;37.644;2023-06-14T12:04:23;3.05;;;1.17;;
39050;SDS011;24805;55.852;37.644;2023-06-14T12:09:26;2.67;;;1.23;;
39050;SDS011;24805;55.852;37.644;2023-06-14T12:14:30;3.25;;;1.30;;
39050;SDS011;24805;55.852;37.644;2023-06-14T12:19:33;1.77;;;1.20;;
39050;SDS011;24805;55.852;37.644;2023-06-14T12:24:42;1.80;;;1.20;;
39050;SDS011;24805;55.852;37.644;2023-06-14T12:29:45;2.50;;;1.15;;
39050;SDS011;24805;55.852;37.644;2023-06-14T12:34:47;5.40;;;1.50;;
39050;SDS011;24805;55.852;37.644;2023-06-14T12:39:51;4.10;;;1.83;;
39050;SDS011;24805;55.852;37.644;2023-06-14T12:44:53;3.40;;;1.80;;
39050;SDS011;24805;55.852;37.644;2023-06-14T12:49:56;8.05;;;1.70;;
39050;SDS011;24805;55.852;37.644;2023-06-14T12:54:58;4.65;;;2.05;;
39050;SDS011;24805;55.852;37.644;2023-06-14T13:00:00;2.35;;;1.42;;
39050;SDS011;24805;55.852;37.644;2023-06-14T13:05:05;4.22;;;1.45;;
39050;SDS011;24805;55.852;37.644;2023-06-14T13:10:07;2.55;;;1.08;;
39050;SDS011;24805;55.852;37.644;2023-06-14T13:15:09;2.53;;;1.50;;
39050;SDS011;24805;55.852;37.644;2023-06-14T13:20:12;3.03;;;1.77;;
39050;SDS011;24805;55.852;37.644;2023-06-14T13:25:15;4.53;;;1.70;;
39050;SDS011;24805;55.852;37.644;2023-06-14T13:30:17;4.88;;;1.52;;
39050;SDS011;24805;55.852;37.644;2023-06-14T13:35:20;4.22;;;1.90;;
39050;SDS011;24805;55.852;37.644;2023-06-14T13:40:22;3.78;;;2.67;;
39050;SDS011;24805;55.852;37.644;2023-06-14T13:45:24;3.80;;;1.83;;
39050;SDS011;24805;55.852;37.644;2023-06-14T13:50:26;4.63;;;2.25;;
39050;SDS011;24805;55.852;37.644;2023-06-14T13:55:29;2.58;;;1.90;;
39050;SDS011;24805;55.852;37.644;2023-06-14T14:00:31;4.18;;;1.92;;
39050;SDS011;24805;55.852;37.644;2023-06-14T14:05:34;6.43;;;1.95;;
39050;SDS011;24805;55.852;37.644;2023-06-14T14:10:36;8.68;;;6.30;;
39050;SDS011;24805;55.852;37.644;2023-06-14T14:15:38;2.75;;;1.80;;
39050;SDS011;24805;55.852;37.644;2023-06-14T14:20:40;3.70;;;1.83;;
39050;SDS011;24805;55.852;37.644;2023-06-14T14:25:43;5.57;;;3.22;;
39050;SDS011;24805;55.852;37.644;2023-06-14T14:30:45;5.80;;;2.10;;
39050;SDS011;24805;55.852;37.644;2023-06-14T14:35:49;8.60;;;3.00;;
39050;SDS011;24805;55.852;37.644;2023-06-14T14:40:51;5.75;;;2.28;;
39050;SDS011;24805;55.852;37.644;2023-06-14T14:45:53;6.05;;;2.08;;
39050;SDS011;24805;55.852;37.644;2023-06-14T14:50:55;5.03;;;2.10;;
39050;SDS011;24805;55.852;37.644;2023-06-14T14:55:58;5.93;;;2.25;;
39050;SDS011;24805;55.852;37.644;2023-06-14T15:01:00;6.30;;;2.15;;
39050;SDS011;24805;55.852;37.644;2023-06-14T15:06:02;4.90;;;2.10;;
39050;SDS011;24805;55.852;37.644;2023-06-14T15:11:04;8.88;;;2.40;;
39050;SDS011;24805;55.852;37.644;2023-06-14T15:16:06;5.82;;;2.28;;
39050;SDS011;24805;55.852;37.644;2023-06-14T15:21:09;4.50;;;2.13;;
39050;SDS011;24805;55.852;37.644;2023-06-14T15:26:11;5.10;;;1.92;;
39050;SDS011;24805;55.852;37.644;2023-06-14T15:31:13;8.10;;;2.83;;
39050;SDS011;24805;55.852;37.644;2023-06-14T15:36:15;5.57;;;2.35;;
39050;SDS011;24805;55.852;37.644;2023-06-14T15:41:18;6.78;;;2.85;;
39050;SDS011;24805;55.852;37.644;2023-06-14T15:46:20;6.53;;;2.17;;
39050;SDS011;24805;55.852;37.644;2023-06-14T15:51:23;8.43;;;2.33;;
39050;SDS011;24805;55.852;37.644;2023-06-14T15:56:25;3.38;;;1.95;;
39050;SDS011;24805;55.852;37.644;2023-06-14T16:01:27;4.88;;;2.22;;
39050;SDS011;24805;55.852;37.644;2023-06-14T16:06:29;8.63;;;2.60;;
39050;SDS011;24805;55.852;37.644;2023-06-14T16:11:31;5.60;;;2.00;;
39050;SDS011;24805;55.852;37.644;2023-06-14T16:16:34;5.15;;;2.83;;
39050;SDS011;24805;55.852;37.644;2023-06-14T16:21:36;7.78;;;2.38;;
39050;SDS011;24805;55.852;37.644;2023-06-14T16:26:38;5.32;;;2.65;;
39050;SDS011;24805;55.852;37.644;2023-06-14T16:31:40;9.38;;;2.20;;
39050;SDS011;24805;55.852;37.644;2023-06-14T16:36:43;8.77;;;2.30;;
39050;SDS011;24805;55.852;37.644;2023-06-14T16:41:46;3.38;;;2.00;;
39050;SDS011;24805;55.852;37.644;2023-06-14T16:46:49;7.55;;;2.15;;
39050;SDS011;24805;55.852;37.644;2023-06-14T16:51:51;6.90;;;2.00;;
39050;SDS011;24805;55.852;37.644;2023-06-14T16:56:53;3.83;;;2.08;;
39050;SDS011;24805;55.852;37.644;2023-06-14T17:02:00;9.30;;;1.90;;
39050;SDS011;24805;55.852;37.644;2023-06-14T17:07:07;6.30;;;2.30;;
39050;SDS011;24805;55.852;37.644;2023-06-14T17:12:09;6.38;;;2.65;;
39050;SDS011;24805;55.852;37.644;2023-06-14T17:17:13;5.97;;;2.20;;
39050;SDS011;24805;55.852;37.644;2023-06-14T17:22:15;5.93;;;2.25;;
39050;SDS011;24805;55.852;37.644;2023-06-14T17:27:18;3.38;;;2.38;;
39050;SDS011;24805;55.852;37.644;2023-06-14T17:32:20;4.88;;;2.13;;
39050;SDS011;24805;55.852;37.644;2023-06-14T17:37:22;5.03;;;2.80;;
39050;SDS011;24805;55.852;37.644;2023-06-14T17:42:24;7.00;;;2.63;;
39050;SDS011;24805;55.852;37.644;2023-06-14T17:47:27;5.85;;;2.40;;
39050;SDS011;24805;55.852;37.644;2023-06-14T17:52:37;5.68;;;2.65;;
39050;SDS011;24805;55.852;37.644;2023-06-14T17:57:39;5.18;;;2.20;;
39050;SDS011;24805;55.852;37.644;2023-06-14T18:02:41;11.30;;;7.18;;
39050;SDS011;24805;55.852;37.644;2023-06-14T18:07:47;14.25;;;9.07;;
39050;SDS011;24805;55.852;37.644;2023-06-14T18:12:49;9.13;;;5.22;;
39050;SDS011;24805;55.852;37.644;2023-06-14T18:17:51;8.20;;;4.05;;
39050;SDS011;24805;55.852;37.644;2023-06-14T18:22:55;6.75;;;2.72;;
39050;SDS011;24805;55.852;37.644;2023-06-14T18:27:58;7.63;;;3.30;;
39050;SDS011;24805;55.852;37.644;2023-06-14T18:33:00;4.55;;;3.10;;
39050;SDS011;24805;55.852;37.644;2023-06-14T18:38:02;11.68;;;6.22;;
39050;SDS011;24805;55.852;37.644;2023-06-14T18:43:04;7.95;;;3.10;;
39050;SDS011;24805;55.852;37.644;2023-06-14T18:48:06;7.18;;;3.00;;
39050;SDS011;24805;55.852;37.644;2023-06-14T18:53:09;8.27;;;3.88;;
39050;SDS011;24805;55.852;37.644;2023-06-14T18:58:11;11.32;;;3.75;;
39050;SDS011;24805;55.852;37.644;2023-06-14T19:03:13;9.10;;;3.63;;
39050;SDS011;24805;55.852;37.644;2023-06-14T19:08:16;7.35;;;3.33;;
39050;SDS011;24805;55.852;37.644;2023-06-14T19:13:19;8.18;;;3.90;;
39050;SDS011;24805;55.852;37.644;2023-06-14T19:18:21;10.27;;;3.05;;
39050;SDS011;24805;55.852;37.644;2023-06-14T19:23:25;10.02;;;6.43;;
39050;SDS011;24805;55.852;37.644;2023-06-14T19:28:27;6.57;;;3.10;;
39050;SDS011;24805;55.852;37.644;2023-06-14T19:33:29;7.97;;;3.95;;
39050;SDS011;24805;55.852;37.644;2023-06-14T19:38:31;6.55;;;3.30;;
39050;SDS011;24805;55.852;37.644;2023-06-14T19:43:34;9.30;;;3.10;;
39050;SDS011;24805;55.852;37.644;2023-06-14T19:48:36;8.85;;;4.03;;
39050;SDS011;24805;55.852;37.644;2023-06-14T19:53:38;8.32;;;3.72;;
39050;SDS011;24805;55.852;37.644;2023-06-14T19:58:40;6.70;;;3.90;;
39050;SDS011;24805;55.852;37.644;2023-06-14T20:03:43;7.07;;;3.25;;
39050;SDS011;24805;55.852;37.644;2023-06-14T20:08:45;9.30;;;3.83;;
39050;SDS011;24805;55.852;37.644;2023-06-14T20:13:48;11.18;;;4.03;;
39050;SDS011;24805;55.852;37.644;2023-06-14T20:18:51;13.90;;;3.38;;
39050;SDS011;24805;55.852;37.644;2023-06-14T20:23:53;8.27;;;3.35;;
39050;SDS011;24805;55.852;37.644;2023-06-14T20:28:55;8.45;;;3.53;;
39050;SDS011;24805;55.852;37.644;2023-06-14T20:33:58;8.75;;;4.30;;
39050;SDS011;24805;55.852;37.644;2023-06-14T20:39:00;10.88;;;4.57;;
39050;SDS011;24805;55.852;37.644;2023-06-14T20:44:02;15.40;;;5.35;;
39050;SDS011;24805;55.852;37.644;2023-06-14T20:49:04;12.63;;;5.53;;
39050;SDS011;24805;55.852;37.644;2023-06-14T20:54:06;14.70;;;5.55;;
39050;SDS011;24805;55.852;37.644;2023-06-14T20:59:09;10.13;;;5.78;;
39050;SDS011;24805;55.852;37.644;2023-06-14T21:04:11;11.07;;;5.65;;
39050;SDS011;24805;55.852;37.644;2023-06-14T21:09:13;9.75;;;5.93;;
39050;SDS011;24805;55.852;37.644;2023-06-14T21:14:15;13.35;;;6.28;;
39050;SDS011;24805;55.852;37.644;2023-06-14T21:19:18;15.07;;;6.20;;
39050;SDS011;24805;55.852;37.644;2023-06-14T21:24:20;14.18;;;5.90;;
39050;SDS011;24805;55.852;37.644;2023-06-14T21:29:22;12.23;;;6.13;;
39050;SDS011;24805;55.852;37.644;2023-06-14T21:34:25;10.98;;;5.97;;
39050;SDS011;24805;55.852;37.644;2023-06-14T21:39:27;16.30;;;5.97;;
39050;SDS011;24805;55.852;37.644;2023-06-14T21:44:29;14.45;;;5.97;;
39050;SDS011;24805;55.852;37.644;2023-06-14T21:49:31;12.52;;;5.50;;
39050;SDS011;24805;55.852;37.644;2023-06-14T21:54:33;12.57;;;6.00;;
39050;SDS011;24805;55.852;37.644;2023-06-14T21:59:36;12.65;;;5.30;;
39050;SDS011;24805;55.852;37.644;2023-06-14T22:04:38;11.45;;;6.20;;
39050;SDS011;24805;55.852;37.644;2023-06-14T22:14:43;12.57;;;5.80;;
39050;SDS011;24805;55.852;37.644;2023-06-14T22:19:50;14.40;;;6.20;;
39050;SDS011;24805;55.852;37.644;2023-06-14T22:24:53;12.07;;;6.03;;
39050;SDS011;24805;55.852;37.644;2023-06-14T22:29:56;12.63;;;5.95;;
39050;SDS011;24805;55.852;37.644;2023-06-14T22:34:59;13.25;;;6.13;;
39050;SDS011;24805;55.852;37.644;2023-06-14T22:40:06;16.08;;;6.72;;
39050;SDS011;24805;55.852;37.644;2023-06-14T22:45:13;15.43;;;5.80;;
39050;SDS011;24805;55.852;37.644;2023-06-14T22:50:28;10.63;;;5.25;;
39050;SDS011;24805;55.852;37.644;2023-06-14T22:55:30;10.80;;;5.32;;
39050;SDS011;24805;55.852;37.644;2023-06-14T23:05:35;11.95;;;5.50;;
39050;SDS011;24805;55.852;37.644;2023-06-14T23:10:40;12.95;;;5.70;;
39050;SDS011;24805;55.852;37.644;2023-06-14T23:15:42;11.85;;;5.35;;
39050;SDS011;24805;55.852;37.644;2023-06-14T23:20:44;13.80;;;5.45;;
39050;SDS011;24805;55.852;37.644;2023-06-14T23:25:47;9.80;;;5.18;;
39050;SDS011;24805;55.852;37.644;2023-06-14T23:30:50;11.75;;;5.30;;
39050;SDS011;24805;55.852;37.644;2023-06-14T23:35:52;14.07;;;5.20;;
39050;SDS011;24805;55.852;37.644;2023-06-14T23:40:55;9.70;;;5.20;;
39050;SDS011;24805;55.852;37.644;2023-06-14T23:45:59;12.48;;;5.18;;
39050;SDS011;24805;55.852;37.644;2023-06-14T23:51:01;10.75;;;5.72;;
39050;SDS011;24805;55.852;37.644;2023-06-14T23:56:04;12.18;;;5.90;;
